createdAt,value
2022-11-16T00:00:18.705Z,6.50
2022-11-16T00:02:46.112Z,7.75
2022-11-16T00:05:13.401Z,7.72
2022-11-16T00:07:40.962Z,6.93
2022-11-16T00:10:08.475Z,7.70
2022-11-16T00:12:35.735Z,7.10
2022-11-16T00:15:02.968Z,6.80
2022-11-16T00:17:30.355Z,7.50
2022-11-16T00:19:57.631Z,5.97
2022-11-16T00:22:25.042Z,7.30
2022-11-16T00:24:52.804Z,6.80
2022-11-16T00:27:20.126Z,7.38
2022-11-16T00:29:47.403Z,6.78
2022-11-16T00:32:14.725Z,7.88
2022-11-16T00:34:41.927Z,7.60
2022-11-16T00:37:09.360Z,7.60
2022-11-16T00:39:36.836Z,6.70
2022-11-16T00:42:04.109Z,7.35
2022-11-16T00:44:31.377Z,6.78
2022-11-16T00:46:58.891Z,7.57
2022-11-16T00:49:26.293Z,7.73
2022-11-16T00:51:53.557Z,7.45
2022-11-16T00:54:22.264Z,6.95
2022-11-16T00:56:50.597Z,8.20
2022-11-16T00:59:17.929Z,7.85
2022-11-16T01:01:45.396Z,7.43
2022-11-16T01:04:12.741Z,7.68
2022-11-16T01:06:39.999Z,7.35
2022-11-16T01:09:07.317Z,8.05
2022-11-16T01:11:53.152Z,7.55
2022-11-16T01:14:20.420Z,7.80
2022-11-16T01:16:49.615Z,7.70
2022-11-16T01:19:16.859Z,9.10
2022-11-16T01:21:44.137Z,7.30
2022-11-16T01:24:11.394Z,8.00
2022-11-16T01:26:38.869Z,8.37
2022-11-16T01:29:06.509Z,8.35
2022-11-16T01:31:39.300Z,7.90
2022-11-16T01:34:06.731Z,8.52
2022-11-16T01:36:36.597Z,8.43
2022-11-16T01:39:05.372Z,8.47
2022-11-16T01:41:43.069Z,8.30
2022-11-16T01:44:16.445Z,8.52
2022-11-16T01:46:51.944Z,7.82
2022-11-16T01:49:23.120Z,9.50
2022-11-16T01:51:54.520Z,8.17
2022-11-16T01:54:22.214Z,8.57
2022-11-16T01:57:01.045Z,7.78
2022-11-16T01:59:34.023Z,7.85
2022-11-16T02:02:02.135Z,8.10
2022-11-16T02:04:30.419Z,7.70
2022-11-16T02:07:03.786Z,8.43
2022-11-16T02:09:55.127Z,8.52
2022-11-16T02:12:35.384Z,8.85
2022-11-16T02:15:15.753Z,8.60
2022-11-16T02:18:05.834Z,8.87
2022-11-16T02:20:41.676Z,9.07
2022-11-16T02:23:27.949Z,10.02
2022-11-16T02:26:11.460Z,9.48
2022-11-16T02:28:38.680Z,8.98
2022-11-16T02:31:07.075Z,9.17
2022-11-16T02:33:39.723Z,9.68
2022-11-16T02:39:27.294Z,9.32
2022-11-16T02:41:56.992Z,9.25
2022-11-16T02:44:29.486Z,9.20
2022-11-16T02:46:58.778Z,9.10
2022-11-16T02:49:27.742Z,10.05
2022-11-16T02:51:55.592Z,9.85
2022-11-16T02:54:24.632Z,10.20
2022-11-16T02:56:57.216Z,9.33
2022-11-16T02:59:29.894Z,9.65
2022-11-16T03:02:13.547Z,10.35
2022-11-16T03:04:46.237Z,9.32
2022-11-16T03:23:19.254Z,9.10
2022-11-16T03:25:52.348Z,8.93
2022-11-16T03:28:20.588Z,8.80
2022-11-16T03:30:52.174Z,9.63
2022-11-16T03:33:31.292Z,9.13
2022-11-16T03:36:18.697Z,9.93
2022-11-16T03:38:48.344Z,8.87
2022-11-16T03:41:15.662Z,7.75
2022-11-16T03:43:44.916Z,7.47
2022-11-16T03:46:13.534Z,8.00
2022-11-16T03:48:41.107Z,6.88
2022-11-16T03:51:14.437Z,6.83
2022-11-16T03:53:42.963Z,6.63
2022-11-16T03:56:12.094Z,6.75
2022-11-16T03:58:39.958Z,6.38
2022-11-16T04:01:07.384Z,6.40
2022-11-16T04:03:34.783Z,5.83
2022-11-16T04:06:20.617Z,5.50
2022-11-16T04:09:06.594Z,5.95
2022-11-16T04:11:55.490Z,5.43
2022-11-16T04:14:43.388Z,5.93
2022-11-16T04:17:33.049Z,5.47
2022-11-16T04:20:18.886Z,6.00
2022-11-16T04:23:17.390Z,5.95
2022-11-16T04:25:46.180Z,5.45
2022-11-16T04:28:17.594Z,6.53
2022-11-16T04:31:18.894Z,5.77
2022-11-16T04:34:11.007Z,6.00
2022-11-16T04:37:01.628Z,6.85
2022-11-16T04:39:30.053Z,5.55
2022-11-16T04:42:15.937Z,6.10
2022-11-16T04:45:04.191Z,5.43
2022-11-16T04:47:41.141Z,6.32
2022-11-16T04:50:08.994Z,6.32
2022-11-16T04:52:36.465Z,6.97
2022-11-16T04:55:05.748Z,6.57
2022-11-16T04:57:33.236Z,6.20
2022-11-16T05:00:00.615Z,6.50
2022-11-16T05:02:28.252Z,6.97
2022-11-16T05:04:58.263Z,6.40
2022-11-16T05:07:27.073Z,7.28
2022-11-16T05:10:03.712Z,6.13
2022-11-16T05:12:31.734Z,6.28
2022-11-16T05:15:01.823Z,6.63
2022-11-16T05:17:31.879Z,6.53
2022-11-16T05:20:19.131Z,6.85
2022-11-16T05:22:54.083Z,7.23
2022-11-16T05:25:21.903Z,6.38
2022-11-16T05:27:49.848Z,6.72
2022-11-16T05:30:17.410Z,7.05
2022-11-16T05:32:44.934Z,6.47
2022-11-16T05:35:13.725Z,6.60
2022-11-16T05:37:41.109Z,7.15
2022-11-16T05:40:08.749Z,6.93
2022-11-16T05:42:42.823Z,6.15
2022-11-16T05:45:10.638Z,7.43
2022-11-16T05:47:37.958Z,6.97
2022-11-16T05:50:05.576Z,7.05
2022-11-16T05:52:38.662Z,6.72
2022-11-16T05:55:09.699Z,7.38
2022-11-16T05:57:42.395Z,7.45
2022-11-16T06:00:10.307Z,6.80
2022-11-16T06:02:47.642Z,7.20
2022-11-16T06:05:22.161Z,7.50
2022-11-16T06:07:49.585Z,6.50
2022-11-16T06:10:17.003Z,6.13
2022-11-16T06:12:47.053Z,6.10
2022-11-16T06:15:14.635Z,5.97
2022-11-16T06:17:41.912Z,5.18
2022-11-16T06:20:11.164Z,5.05
2022-11-16T06:22:39.006Z,5.38
2022-11-16T06:25:06.989Z,4.90
2022-11-16T06:27:40.913Z,5.40
2022-11-16T06:30:10.109Z,5.82
2022-11-16T06:32:38.956Z,5.95
2022-11-16T06:35:07.471Z,6.00
2022-11-16T06:37:35.107Z,6.37
2022-11-16T06:40:03.323Z,6.20
2022-11-16T06:42:34.440Z,6.43
2022-11-16T06:45:02.057Z,6.80
2022-11-16T06:47:36.150Z,6.55
2022-11-16T06:50:04.406Z,6.30
2022-11-16T06:52:31.748Z,6.20
2022-11-16T06:54:59.334Z,5.55
2022-11-16T06:57:30.965Z,5.30
2022-11-16T06:59:58.321Z,5.90
2022-11-16T07:02:25.838Z,5.63
2022-11-16T07:04:54.797Z,5.10
2022-11-16T07:07:23.587Z,5.38
2022-11-16T07:09:51.161Z,5.22
2022-11-16T07:12:19.245Z,5.32
2022-11-16T07:14:46.700Z,4.33
2022-11-16T07:17:14.540Z,4.57
2022-11-16T07:19:41.864Z,5.35
2022-11-16T07:22:09.178Z,5.35
2022-11-16T07:24:36.620Z,5.95
2022-11-16T07:27:03.947Z,6.10
2022-11-16T07:29:35.914Z,5.32
2022-11-16T07:32:23.071Z,5.05
2022-11-16T07:35:08.310Z,3.95
2022-11-16T07:37:37.465Z,4.50
2022-11-16T07:40:05.859Z,4.40
2022-11-16T07:42:33.297Z,4.05
2022-11-16T07:45:13.926Z,4.18
2022-11-16T07:47:52.332Z,3.58
2022-11-16T07:50:35.502Z,3.72
2022-11-16T07:53:03.315Z,4.27
2022-11-16T07:55:32.318Z,4.43
2022-11-16T07:58:01.587Z,7.28
2022-11-16T08:00:28.926Z,6.45
2022-11-16T08:03:06.598Z,4.85
2022-11-16T08:05:34.010Z,6.00
2022-11-16T08:08:01.355Z,4.35
2022-11-16T08:10:31.119Z,4.43
2022-11-16T08:12:59.761Z,3.85
2022-11-16T08:15:27.137Z,3.80
2022-11-16T08:17:54.431Z,4.23
2022-11-16T08:20:21.964Z,4.80
2022-11-16T08:22:49.947Z,10.65
2022-11-16T08:25:18.556Z,10.80
2022-11-16T08:27:47.695Z,7.55
2022-11-16T08:30:17.499Z,5.83
2022-11-16T08:32:45.721Z,6.85
2022-11-16T08:35:15.007Z,5.07
2022-11-16T08:37:43.708Z,3.38
2022-11-16T08:40:11.489Z,5.20
2022-11-16T08:42:43.701Z,3.97
2022-11-16T08:45:12.072Z,2.92
2022-11-16T08:47:39.534Z,3.50
2022-11-16T08:50:08.587Z,6.78
2022-11-16T08:52:35.845Z,4.70
2022-11-16T08:55:04.994Z,3.27
2022-11-16T08:57:33.228Z,4.80
2022-11-16T09:00:05.179Z,2.60
2022-11-16T09:02:32.452Z,5.93
2022-11-16T09:04:59.748Z,2.97
2022-11-16T09:07:27.857Z,2.93
2022-11-16T09:09:55.282Z,2.33
2022-11-16T09:12:22.589Z,2.60
2022-11-16T09:14:49.919Z,2.28
2022-11-16T09:17:23.151Z,3.08
2022-11-16T09:19:50.737Z,3.47
2022-11-16T09:22:18.084Z,2.28
2022-11-16T09:24:45.347Z,2.35
2022-11-16T09:27:12.916Z,3.20
2022-11-16T09:29:40.203Z,5.80
2022-11-16T09:32:07.478Z,5.77
2022-11-16T09:34:36.116Z,4.78
2022-11-16T09:37:03.453Z,4.72
2022-11-16T09:39:32.511Z,3.15
2022-11-16T09:42:00.679Z,7.47
2022-11-16T09:44:37.870Z,3.53
2022-11-16T09:47:05.913Z,2.88
2022-11-16T09:49:36.125Z,2.50
2022-11-16T09:52:05.451Z,2.58
2022-11-16T09:54:36.174Z,2.85
2022-11-16T09:57:10.926Z,3.37
2022-11-16T09:59:43.373Z,2.78
2022-11-16T10:02:27.867Z,2.70
2022-11-16T10:05:04.718Z,2.50
2022-11-16T10:07:44.012Z,2.70
2022-11-16T10:10:33.219Z,2.50
2022-11-16T10:13:20.761Z,2.30
2022-11-16T10:16:10.957Z,2.08
2022-11-16T10:18:44.354Z,6.90
2022-11-16T10:21:27.637Z,3.92
2022-11-16T10:24:03.632Z,4.57
2022-11-16T10:26:35.678Z,2.70
2022-11-16T10:29:10.228Z,3.70
2022-11-16T10:31:43.682Z,3.03
2022-11-16T10:34:13.020Z,2.00
2022-11-16T10:36:40.458Z,2.60
2022-11-16T10:39:12.681Z,1.63
2022-11-16T10:41:44.218Z,2.35
2022-11-16T10:44:30.238Z,4.40
2022-11-16T10:47:09.811Z,23.33
2022-11-16T10:49:42.722Z,10.77
2022-11-16T10:52:09.972Z,10.68
2022-11-16T10:54:41.452Z,4.10
2022-11-16T10:57:14.226Z,8.38
2022-11-16T10:59:41.535Z,1.65
2022-11-16T11:02:24.138Z,10.17
2022-11-16T11:05:08.830Z,24.55
2022-11-16T11:07:37.858Z,16.55
2022-11-16T11:10:05.769Z,12.23
2022-11-16T11:12:39.029Z,3.65
2022-11-16T11:15:06.376Z,14.43
2022-11-16T11:17:35.476Z,3.08
2022-11-16T11:20:05.530Z,2.38
2022-11-16T11:22:33.868Z,2.15
2022-11-16T11:25:03.263Z,2.30
2022-11-16T11:27:33.237Z,2.20
2022-11-16T11:30:01.103Z,4.40
2022-11-16T11:32:32.319Z,3.53
2022-11-16T11:35:01.135Z,15.50
2022-11-16T11:37:31.109Z,4.95
2022-11-16T11:40:07.565Z,3.60
2022-11-16T11:42:34.881Z,10.63
2022-11-16T11:45:13.761Z,17.45
2022-11-16T11:47:59.089Z,8.20
2022-11-16T11:50:33.016Z,2.53
2022-11-16T11:53:08.519Z,1.63
2022-11-16T11:55:35.826Z,1.60
2022-11-16T11:58:03.877Z,1.63
2022-11-16T12:00:37.482Z,1.88
2022-11-16T12:03:17.394Z,2.08
2022-11-16T12:05:44.682Z,14.93
2022-11-16T12:08:14.975Z,3.38
2022-11-16T12:10:51.001Z,2.63
2022-11-16T12:13:51.156Z,2.90
2022-11-16T12:16:21.574Z,3.75
2022-11-16T12:19:05.586Z,4.73
2022-11-16T12:21:39.522Z,12.13
2022-11-16T12:24:18.071Z,5.68
2022-11-16T12:27:04.195Z,4.00
2022-11-16T12:29:43.782Z,4.05
2022-11-16T12:32:31.271Z,4.57
2022-11-16T12:35:04.803Z,13.63
2022-11-16T12:37:32.063Z,3.70
2022-11-16T12:40:08.753Z,3.20
2022-11-16T12:42:42.234Z,3.35
2022-11-16T12:45:12.721Z,5.47
2022-11-16T12:47:58.751Z,8.52
2022-11-16T12:50:41.468Z,5.25
2022-11-16T12:53:28.987Z,2.85
2022-11-16T12:56:13.771Z,3.25
2022-11-16T12:59:01.429Z,3.03
2022-11-16T13:01:34.849Z,5.28
2022-11-16T13:04:06.546Z,3.78
2022-11-16T13:06:39.918Z,7.70
2022-11-16T13:09:13.484Z,8.55
2022-11-16T13:11:42.723Z,4.77
2022-11-16T13:14:21.759Z,15.80
2022-11-16T13:16:50.074Z,7.15
2022-11-16T13:19:18.134Z,2.97
2022-11-16T13:21:52.519Z,9.73
2022-11-16T13:24:25.820Z,2.00
2022-11-16T13:26:53.074Z,1.60
2022-11-16T13:29:28.647Z,1.60
2022-11-16T13:32:01.540Z,1.42
2022-11-16T13:34:37.240Z,1.48
2022-11-16T13:37:23.339Z,1.40
2022-11-16T13:39:59.812Z,1.70
2022-11-16T13:42:27.448Z,1.25
2022-11-16T13:44:55.165Z,1.77
2022-11-16T13:47:24.918Z,1.85
2022-11-16T13:49:54.317Z,1.93
2022-11-16T13:52:26.372Z,1.90
2022-11-16T13:55:01.593Z,2.83
2022-11-16T13:57:33.291Z,2.40
2022-11-16T14:00:05.038Z,2.30
2022-11-16T14:02:40.160Z,1.93
2022-11-16T14:05:13.627Z,1.70
2022-11-16T14:07:47.135Z,1.73
2022-11-16T14:10:34.735Z,1.33
2022-11-16T14:13:28.046Z,1.55
2022-11-16T14:16:14.193Z,1.80
2022-11-16T14:18:42.064Z,1.35
2022-11-16T14:21:18.470Z,1.58
2022-11-16T14:24:01.273Z,1.95
2022-11-16T14:26:45.736Z,2.15
2022-11-16T14:29:23.271Z,1.50
2022-11-16T14:31:56.788Z,1.90
2022-11-16T14:34:42.320Z,1.88
2022-11-16T14:37:15.605Z,1.55
2022-11-16T14:39:43.806Z,1.85
2022-11-16T14:42:18.527Z,1.70
2022-11-16T14:44:45.988Z,1.98
2022-11-16T14:47:22.917Z,2.05
2022-11-16T14:49:51.025Z,1.80
2022-11-16T14:52:19.634Z,2.28
2022-11-16T14:54:46.975Z,2.07
2022-11-16T14:57:19.509Z,2.08
2022-11-16T14:59:46.809Z,2.55
2022-11-16T15:02:24.229Z,1.77
2022-11-16T15:04:52.193Z,2.20
2022-11-16T15:07:20.807Z,2.67
2022-11-16T15:09:48.942Z,2.20
2022-11-16T15:12:40.169Z,2.45
2022-11-16T15:15:13.604Z,1.70
2022-11-16T15:17:43.228Z,2.05
2022-11-16T15:20:24.559Z,2.67
2022-11-16T15:22:53.321Z,2.25
2022-11-16T15:25:23.757Z,2.15
2022-11-16T15:27:51.272Z,1.73
2022-11-16T15:30:22.872Z,1.95
2022-11-16T15:32:51.286Z,2.30
2022-11-16T15:35:23.290Z,3.65
2022-11-16T15:38:05.908Z,3.35
2022-11-16T15:40:33.793Z,3.60
2022-11-16T15:43:02.163Z,3.08
2022-11-16T15:45:30.232Z,2.43
2022-11-16T15:48:00.404Z,2.47
2022-11-16T15:50:28.117Z,2.85
2022-11-16T15:52:56.013Z,2.25
2022-11-16T15:55:34.950Z,2.10
2022-11-16T15:58:08.459Z,2.00
2022-11-16T16:00:37.339Z,2.08
2022-11-16T16:03:17.372Z,2.35
2022-11-16T16:05:44.682Z,2.33
2022-11-16T16:08:27.741Z,2.45
2022-11-16T16:11:21.438Z,2.47
2022-11-16T16:14:00.269Z,2.97
2022-11-16T16:16:29.868Z,2.25
2022-11-16T16:18:59.106Z,2.10
2022-11-16T16:21:27.031Z,2.53
2022-11-16T16:23:55.827Z,2.73
2022-11-16T16:26:23.727Z,2.28
2022-11-16T16:28:51.479Z,3.08
2022-11-16T16:31:19.534Z,2.80
2022-11-16T16:33:47.368Z,2.90
2022-11-16T16:36:15.398Z,2.97
2022-11-16T16:38:42.757Z,2.95
2022-11-16T16:41:21.161Z,2.95
2022-11-16T16:43:51.206Z,2.90
2022-11-16T16:46:18.469Z,3.30
2022-11-16T16:48:45.684Z,3.00
2022-11-16T16:51:13.228Z,3.28
2022-11-16T16:53:40.451Z,3.22
2022-11-16T16:56:14.190Z,3.10
2022-11-16T16:58:41.608Z,3.70
2022-11-16T17:01:09.751Z,2.93
2022-11-16T17:03:37.407Z,2.80
2022-11-16T17:06:04.923Z,2.70
2022-11-16T17:08:36.103Z,3.53
2022-11-16T17:11:03.799Z,3.25
2022-11-16T17:13:31.581Z,2.80
2022-11-16T17:15:59.210Z,3.42
2022-11-16T17:18:26.712Z,2.85
2022-11-16T17:20:53.955Z,3.75
2022-11-16T17:23:21.239Z,3.70
2022-11-16T17:25:48.500Z,3.30
2022-11-16T17:28:15.777Z,3.40
2022-11-16T17:30:43.027Z,3.30
2022-11-16T17:33:10.277Z,3.97
2022-11-16T17:35:37.609Z,5.28
2022-11-16T17:38:04.896Z,5.20
2022-11-16T17:40:32.117Z,4.32
2022-11-16T17:42:59.435Z,7.35
2022-11-16T17:45:27.483Z,4.15
2022-11-16T17:47:54.781Z,5.35
2022-11-16T17:50:22.228Z,4.40
2022-11-16T17:52:49.541Z,3.58
2022-11-16T17:55:16.837Z,4.30
2022-11-16T17:57:44.172Z,4.85
2022-11-16T18:00:11.749Z,3.92
2022-11-16T18:02:38.976Z,5.67
2022-11-16T18:05:06.399Z,5.13
2022-11-16T18:07:33.871Z,5.18
2022-11-16T18:10:01.216Z,4.57
2022-11-16T18:12:28.494Z,3.80
2022-11-16T18:15:26.462Z,5.17
2022-11-16T18:17:43.009Z,3.70
2022-11-16T18:20:10.641Z,4.25
2022-11-16T18:22:37.848Z,4.90
2022-11-16T18:25:05.338Z,5.90
2022-11-16T18:27:32.513Z,3.53
2022-11-16T18:29:59.762Z,3.20
2022-11-16T18:32:27.079Z,3.33
2022-11-16T18:34:54.365Z,4.10
2022-11-16T18:37:21.687Z,3.22
2022-11-16T18:39:49.094Z,3.10
2022-11-16T18:42:16.429Z,8.98
2022-11-16T18:44:43.753Z,5.45
2022-11-16T18:47:11.062Z,4.07
2022-11-16T18:49:38.543Z,3.53
2022-11-16T18:52:05.815Z,4.30
2022-11-16T18:54:33.064Z,3.70
2022-11-16T18:57:00.423Z,3.17
2022-11-16T18:59:27.642Z,3.92
2022-11-16T19:01:54.912Z,3.20
2022-11-16T19:04:22.176Z,3.67
2022-11-16T19:06:49.514Z,2.90
2022-11-16T19:09:16.875Z,3.00
2022-11-16T19:11:44.165Z,3.10
2022-11-16T19:14:11.437Z,2.97
2022-11-16T19:16:43.066Z,2.57
2022-11-16T19:19:14.866Z,2.40
2022-11-16T19:21:42.203Z,2.70
2022-11-16T19:24:09.545Z,2.60
2022-11-16T19:26:36.894Z,3.00
2022-11-16T19:29:04.331Z,3.03
2022-11-16T19:31:32.883Z,2.50
2022-11-16T19:34:01.393Z,3.00
2022-11-16T19:36:29.558Z,2.95
2022-11-16T19:38:56.834Z,2.85
2022-11-16T19:41:24.685Z,2.30
2022-11-16T19:43:52.871Z,2.45
2022-11-16T19:46:24.417Z,2.78
2022-11-16T19:48:52.528Z,2.75
2022-11-16T19:51:24.003Z,2.55
2022-11-16T19:53:51.356Z,2.67
2022-11-16T19:56:19.559Z,3.15
2022-11-16T19:58:47.186Z,3.17
2022-11-16T20:01:16.004Z,2.60
2022-11-16T20:03:43.325Z,3.55
2022-11-16T20:06:12.010Z,3.63
2022-11-16T20:08:41.622Z,3.00
2022-11-16T20:11:12.001Z,3.58
2022-11-16T20:13:39.406Z,2.33
2022-11-16T20:16:07.719Z,3.47
2022-11-16T20:18:35.060Z,2.17
2022-11-16T20:21:02.950Z,2.20
2022-11-16T20:23:30.196Z,3.03
2022-11-16T20:25:57.466Z,3.10
2022-11-16T20:28:24.759Z,3.10
2022-11-16T20:30:52.067Z,2.70
2022-11-16T20:33:19.419Z,2.55
2022-11-16T20:35:46.630Z,3.40
2022-11-16T20:38:13.911Z,3.08
2022-11-16T20:40:41.196Z,3.33
2022-11-16T20:43:09.139Z,2.43
2022-11-16T20:45:36.393Z,2.25
2022-11-16T20:48:04.370Z,2.72
2022-11-16T20:50:31.667Z,3.40
2022-11-16T20:52:59.005Z,2.78
2022-11-16T20:55:26.367Z,2.93
2022-11-16T20:57:53.663Z,2.83
2022-11-16T21:00:21.170Z,3.00
2022-11-16T21:02:48.460Z,3.03
2022-11-16T21:05:15.718Z,2.92
2022-11-16T21:07:43.926Z,2.70
2022-11-16T21:10:20.431Z,2.63
2022-11-16T21:13:06.286Z,3.17
2022-11-16T21:15:33.664Z,2.67
2022-11-16T21:18:01.047Z,3.00
2022-11-16T21:20:28.821Z,2.60
2022-11-16T21:22:56.243Z,3.08
2022-11-16T21:25:23.528Z,2.67
2022-11-16T21:27:50.717Z,2.30
2022-11-16T21:30:18.126Z,2.38
2022-11-16T21:32:45.401Z,2.40
2022-11-16T21:35:12.800Z,2.22
2022-11-16T21:37:40.121Z,3.00
2022-11-16T21:40:07.609Z,2.50
2022-11-16T21:42:34.793Z,2.50
2022-11-16T21:45:03.170Z,2.70
2022-11-16T21:47:30.622Z,2.40
2022-11-16T21:52:45.162Z,2.35
2022-11-16T21:55:12.436Z,3.25
2022-11-16T21:57:39.707Z,2.20
2022-11-16T22:00:07.325Z,2.50
2022-11-16T22:02:38.892Z,2.50
2022-11-16T22:05:25.136Z,2.58
2022-11-16T22:07:52.396Z,2.45
2022-11-16T22:10:19.739Z,2.20
2022-11-16T22:12:47.011Z,1.92
2022-11-16T22:15:14.383Z,2.47
2022-11-16T22:17:45.007Z,2.17
2022-11-16T22:20:12.370Z,2.72
2022-11-16T22:22:39.912Z,2.03
2022-11-16T22:25:07.501Z,2.80
2022-11-16T22:27:52.125Z,2.65
2022-11-16T22:30:22.252Z,2.30
2022-11-16T22:32:49.528Z,2.78
2022-11-16T22:35:16.867Z,2.43
2022-11-16T22:37:44.079Z,2.10
2022-11-16T22:40:17.431Z,2.53
2022-11-16T22:42:45.018Z,2.63
2022-11-16T22:45:12.430Z,2.53
2022-11-16T22:47:39.985Z,2.20
2022-11-16T22:50:07.317Z,2.38
2022-11-16T22:52:34.657Z,3.08
2022-11-16T22:55:01.873Z,2.65
2022-11-16T22:57:29.105Z,2.90
2022-11-16T22:59:56.334Z,2.97
2022-11-16T23:02:23.615Z,2.38
2022-11-16T23:04:50.913Z,2.80
2022-11-16T23:07:18.676Z,2.53
2022-11-16T23:09:46.013Z,3.30
2022-11-16T23:12:31.872Z,2.93
2022-11-16T23:15:17.581Z,2.70
2022-11-16T23:17:45.928Z,3.13
2022-11-16T23:20:31.680Z,2.60
2022-11-16T23:23:17.431Z,3.17
2022-11-16T23:26:03.471Z,3.60
2022-11-16T23:28:30.739Z,2.75
2022-11-16T23:30:58.007Z,3.53
2022-11-16T23:33:44.015Z,2.70
2022-11-16T23:36:14.822Z,2.95
2022-11-16T23:38:42.270Z,3.77
2022-11-16T23:41:28.180Z,2.95
2022-11-16T23:43:58.131Z,3.08
2022-11-16T23:46:29.043Z,3.35
2022-11-16T23:48:56.623Z,2.60
2022-11-16T23:51:24.358Z,2.60
2022-11-16T23:53:52.644Z,3.45
2022-11-16T23:56:20.619Z,3.10
2022-11-16T23:58:47.981Z,2.58
